sensor_id;sensor_type;location;lat;lon;timestamp;temperature;humidity
65291;SHT30;51893;59.754;10.110;2023-04-03T00:01:20;-1.03;65.53
65291;SHT30;51893;59.754;10.110;2023-04-03T00:03:48;-1.06;66.03
65291;SHT30;51893;59.754;10.110;2023-04-03T00:06:17;-1.01;66.22
65291;SHT30;51893;59.754;10.110;2023-04-03T00:08:45;-1.03;66.49
65291;SHT30;51893;59.754;10.110;2023-04-03T00:11:16;-1.00;66.48
65291;SHT30;51893;59.754;10.110;2023-04-03T00:13:44;-0.93;66.40
65291;SHT30;51893;59.754;10.110;2023-04-03T00:16:14;-0.91;66.25
65291;SHT30;51893;59.754;10.110;2023-04-03T00:18:42;-0.87;66.08
65291;SHT30;51893;59.754;10.110;2023-04-03T00:21:12;-0.85;66.00
65291;SHT30;51893;59.754;10.110;2023-04-03T00:23:41;-0.81;66.15
65291;SHT30;51893;59.754;10.110;2023-04-03T00:26:08;-0.77;66.23
65291;SHT30;51893;59.754;10.110;2023-04-03T00:28:35;-0.79;66.30
65291;SHT30;51893;59.754;10.110;2023-04-03T00:31:03;-0.82;66.02
65291;SHT30;51893;59.754;10.110;2023-04-03T00:33:30;-0.93;65.97
65291;SHT30;51893;59.754;10.110;2023-04-03T00:35:56;-0.99;66.20
65291;SHT30;51893;59.754;10.110;2023-04-03T00:38:23;-0.97;66.19
65291;SHT30;51893;59.754;10.110;2023-04-03T00:40:51;-1.02;65.82
65291;SHT30;51893;59.754;10.110;2023-04-03T00:43:24;-1.10;65.95
65291;SHT30;51893;59.754;10.110;2023-04-03T00:45:54;-1.14;66.14
65291;SHT30;51893;59.754;10.110;2023-04-03T00:51:14;-1.22;67.27
65291;SHT30;51893;59.754;10.110;2023-04-03T00:53:56;-1.25;67.59
65291;SHT30;51893;59.754;10.110;2023-04-03T00:56:29;-1.27;67.61
65291;SHT30;51893;59.754;10.110;2023-04-03T00:59:10;-1.32;67.65
65291;SHT30;51893;59.754;10.110;2023-04-03T01:01:44;-1.37;67.71
65291;SHT30;51893;59.754;10.110;2023-04-03T01:04:30;-1.43;68.15
65291;SHT30;51893;59.754;10.110;2023-04-03T01:07:24;-1.47;68.26
65291;SHT30;51893;59.754;10.110;2023-04-03T01:09:56;-1.50;68.05
65291;SHT30;51893;59.754;10.110;2023-04-03T01:12:29;-1.59;68.23
65291;SHT30;51893;59.754;10.110;2023-04-03T01:15:02;-1.68;68.82
65291;SHT30;51893;59.754;10.110;2023-04-03T01:17:41;-1.69;68.51
65291;SHT30;51893;59.754;10.110;2023-04-03T01:28:23;-1.80;69.58
65291;SHT30;51893;59.754;10.110;2023-04-03T01:34:07;-1.77;68.74
65291;SHT30;51893;59.754;10.110;2023-04-03T01:36:35;-1.83;68.79
65291;SHT30;51893;59.754;10.110;2023-04-03T01:39:01;-1.72;68.54
65291;SHT30;51893;59.754;10.110;2023-04-03T01:41:29;-1.65;68.03
65291;SHT30;51893;59.754;10.110;2023-04-03T01:43:56;-1.69;68.28
65291;SHT30;51893;59.754;10.110;2023-04-03T01:46:23;-1.70;68.62
65291;SHT30;51893;59.754;10.110;2023-04-03T01:48:51;-1.74;69.04
65291;SHT30;51893;59.754;10.110;2023-04-03T01:51:17;-1.82;69.19
65291;SHT30;51893;59.754;10.110;2023-04-03T01:53:46;-1.85;69.17
65291;SHT30;51893;59.754;10.110;2023-04-03T01:56:13;-1.80;68.90
65291;SHT30;51893;59.754;10.110;2023-04-03T01:58:40;-1.76;68.59
65291;SHT30;51893;59.754;10.110;2023-04-03T02:01:07;-1.74;68.60
65291;SHT30;51893;59.754;10.110;2023-04-03T02:03:33;-1.79;68.76
65291;SHT30;51893;59.754;10.110;2023-04-03T02:06:00;-1.86;68.99
65291;SHT30;51893;59.754;10.110;2023-04-03T02:08:26;-1.95;69.22
65291;SHT30;51893;59.754;10.110;2023-04-03T02:10:58;-2.00;69.35
65291;SHT30;51893;59.754;10.110;2023-04-03T02:13:25;-2.03;69.14
65291;SHT30;51893;59.754;10.110;2023-04-03T02:15:51;-2.06;69.12
65291;SHT30;51893;59.754;10.110;2023-04-03T02:18:18;-2.10;69.20
65291;SHT30;51893;59.754;10.110;2023-04-03T02:20:46;-2.10;68.93
65291;SHT30;51893;59.754;10.110;2023-04-03T02:23:14;-2.08;68.57
65291;SHT30;51893;59.754;10.110;2023-04-03T02:25:40;-2.10;68.41
65291;SHT30;51893;59.754;10.110;2023-04-03T02:28:07;-2.12;68.31
65291;SHT30;51893;59.754;10.110;2023-04-03T02:30:34;-2.13;68.32
65291;SHT30;51893;59.754;10.110;2023-04-03T02:33:01;-2.15;68.32
65291;SHT30;51893;59.754;10.110;2023-04-03T02:35:31;-2.17;68.61
65291;SHT30;51893;59.754;10.110;2023-04-03T02:37:58;-2.20;68.79
65291;SHT30;51893;59.754;10.110;2023-04-03T02:40:24;-2.22;68.73
65291;SHT30;51893;59.754;10.110;2023-04-03T02:42:52;-2.19;68.80
65291;SHT30;51893;59.754;10.110;2023-04-03T02:45:18;-2.24;68.80
65291;SHT30;51893;59.754;10.110;2023-04-03T02:47:45;-2.28;68.95
65291;SHT30;51893;59.754;10.110;2023-04-03T02:50:13;-2.21;68.74
65291;SHT30;51893;59.754;10.110;2023-04-03T02:52:39;-2.21;68.64
65291;SHT30;51893;59.754;10.110;2023-04-03T02:55:08;-2.17;68.76
65291;SHT30;51893;59.754;10.110;2023-04-03T02:57:35;-2.18;68.79
65291;SHT30;51893;59.754;10.110;2023-04-03T03:00:02;-2.24;68.84
65291;SHT30;51893;59.754;10.110;2023-04-03T03:02:29;-2.32;68.86
65291;SHT30;51893;59.754;10.110;2023-04-03T03:04:55;-2.36;69.32
65291;SHT30;51893;59.754;10.110;2023-04-03T03:07:22;-2.37;69.59
65291;SHT30;51893;59.754;10.110;2023-04-03T03:09:49;-2.33;69.51
65291;SHT30;51893;59.754;10.110;2023-04-03T03:12:17;-2.40;69.21
65291;SHT30;51893;59.754;10.110;2023-04-03T03:14:48;-2.44;69.16
65291;SHT30;51893;59.754;10.110;2023-04-03T03:17:15;-2.46;69.27
65291;SHT30;51893;59.754;10.110;2023-04-03T03:19:41;-2.49;69.78
65291;SHT30;51893;59.754;10.110;2023-04-03T03:22:08;-2.55;69.97
65291;SHT30;51893;59.754;10.110;2023-04-03T03:24:35;-2.59;70.11
65291;SHT30;51893;59.754;10.110;2023-04-03T03:27:02;-2.64;70.25
65291;SHT30;51893;59.754;10.110;2023-04-03T03:29:31;-2.65;70.49
65291;SHT30;51893;59.754;10.110;2023-04-03T03:31:59;-2.62;70.39
65291;SHT30;51893;59.754;10.110;2023-04-03T03:34:25;-2.59;70.26
65291;SHT30;51893;59.754;10.110;2023-04-03T03:36:52;-2.60;70.08
65291;SHT30;51893;59.754;10.110;2023-04-03T03:39:18;-2.66;69.85
65291;SHT30;51893;59.754;10.110;2023-04-03T03:41:46;-2.68;69.66
65291;SHT30;51893;59.754;10.110;2023-04-03T03:44:13;-2.67;69.44
65291;SHT30;51893;59.754;10.110;2023-04-03T03:46:44;-2.75;69.36
65291;SHT30;51893;59.754;10.110;2023-04-03T03:49:11;-2.70;69.22
65291;SHT30;51893;59.754;10.110;2023-04-03T03:51:39;-2.64;68.90
65291;SHT30;51893;59.754;10.110;2023-04-03T03:54:07;-2.67;68.65
65291;SHT30;51893;59.754;10.110;2023-04-03T03:56:37;-2.76;68.56
65291;SHT30;51893;59.754;10.110;2023-04-03T03:59:04;-2.78;68.78
65291;SHT30;51893;59.754;10.110;2023-04-03T04:01:31;-2.75;68.79
65291;SHT30;51893;59.754;10.110;2023-04-03T04:03:59;-2.81;69.03
65291;SHT30;51893;59.754;10.110;2023-04-03T04:06:28;-2.90;69.12
65291;SHT30;51893;59.754;10.110;2023-04-03T04:08:55;-2.97;69.18
65291;SHT30;51893;59.754;10.110;2023-04-03T04:11:21;-3.01;69.40
65291;SHT30;51893;59.754;10.110;2023-04-03T04:13:49;-3.05;69.48
65291;SHT30;51893;59.754;10.110;2023-04-03T04:16:16;-3.06;69.43
65291;SHT30;51893;59.754;10.110;2023-04-03T04:18:44;-3.10;69.27
65291;SHT30;51893;59.754;10.110;2023-04-03T04:21:12;-3.12;69.16
65291;SHT30;51893;59.754;10.110;2023-04-03T04:23:40;-3.17;69.42
65291;SHT30;51893;59.754;10.110;2023-04-03T04:26:07;-3.16;69.68
65291;SHT30;51893;59.754;10.110;2023-04-03T04:28:33;-3.18;70.07
65291;SHT30;51893;59.754;10.110;2023-04-03T04:31:01;-3.27;70.25
65291;SHT30;51893;59.754;10.110;2023-04-03T04:33:28;-3.32;70.28
65291;SHT30;51893;59.754;10.110;2023-04-03T04:35:54;-3.39;70.41
65291;SHT30;51893;59.754;10.110;2023-04-03T04:38:24;-3.37;71.00
65291;SHT30;51893;59.754;10.110;2023-04-03T04:40:51;-3.30;71.00
65291;SHT30;51893;59.754;10.110;2023-04-03T04:43:18;-3.29;70.67
65291;SHT30;51893;59.754;10.110;2023-04-03T04:45:47;-3.31;70.68
65291;SHT30;51893;59.754;10.110;2023-04-03T04:48:15;-3.31;70.97
65291;SHT30;51893;59.754;10.110;2023-04-03T04:50:43;-3.34;71.54
65291;SHT30;51893;59.754;10.110;2023-04-03T04:53:10;-3.24;71.59
65291;SHT30;51893;59.754;10.110;2023-04-03T04:55:39;-3.27;71.63
65291;SHT30;51893;59.754;10.110;2023-04-03T04:58:05;-3.41;71.78
65291;SHT30;51893;59.754;10.110;2023-04-03T05:00:35;-3.39;71.87
65291;SHT30;51893;59.754;10.110;2023-04-03T05:03:03;-3.38;71.83
65291;SHT30;51893;59.754;10.110;2023-04-03T05:05:29;-3.38;71.95
65291;SHT30;51893;59.754;10.110;2023-04-03T05:07:57;-3.32;71.79
65291;SHT30;51893;59.754;10.110;2023-04-03T05:10:25;-3.35;71.53
65291;SHT30;51893;59.754;10.110;2023-04-03T05:12:51;-3.27;71.39
65291;SHT30;51893;59.754;10.110;2023-04-03T05:15:18;-3.30;71.18
65291;SHT30;51893;59.754;10.110;2023-04-03T05:17:47;-3.34;71.34
65291;SHT30;51893;59.754;10.110;2023-04-03T05:20:14;-3.33;71.49
65291;SHT30;51893;59.754;10.110;2023-04-03T05:22:41;-3.29;71.67
65291;SHT30;51893;59.754;10.110;2023-04-03T05:25:09;-3.30;71.78
65291;SHT30;51893;59.754;10.110;2023-04-03T05:27:36;-3.25;71.71
65291;SHT30;51893;59.754;10.110;2023-04-03T05:30:03;-3.24;71.97
65291;SHT30;51893;59.754;10.110;2023-04-03T05:32:32;-3.18;72.36
65291;SHT30;51893;59.754;10.110;2023-04-03T05:34:59;-3.21;72.99
65291;SHT30;51893;59.754;10.110;2023-04-03T05:37:27;-3.12;72.96
65291;SHT30;51893;59.754;10.110;2023-04-03T05:39:54;-3.09;72.60
65291;SHT30;51893;59.754;10.110;2023-04-03T05:42:20;-3.07;72.48
65291;SHT30;51893;59.754;10.110;2023-04-03T05:44:48;-3.04;72.63
65291;SHT30;51893;59.754;10.110;2023-04-03T05:47:17;-2.97;72.74
65291;SHT30;51893;59.754;10.110;2023-04-03T05:49:45;-2.94;72.70
65291;SHT30;51893;59.754;10.110;2023-04-03T05:52:30;-2.91;72.67
65291;SHT30;51893;59.754;10.110;2023-04-03T05:55:05;-2.82;72.74
65291;SHT30;51893;59.754;10.110;2023-04-03T05:57:32;-2.80;72.57
65291;SHT30;51893;59.754;10.110;2023-04-03T05:59:59;-2.73;72.43
65291;SHT30;51893;59.754;10.110;2023-04-03T06:02:26;-2.72;72.42
65291;SHT30;51893;59.754;10.110;2023-04-03T06:04:54;-2.73;72.50
65291;SHT30;51893;59.754;10.110;2023-04-03T06:07:21;-2.67;72.51
65291;SHT30;51893;59.754;10.110;2023-04-03T06:09:56;-2.58;72.42
65291;SHT30;51893;59.754;10.110;2023-04-03T06:12:24;-2.55;72.31
65291;SHT30;51893;59.754;10.110;2023-04-03T06:14:51;-2.52;72.35
65291;SHT30;51893;59.754;10.110;2023-04-03T06:17:18;-2.49;72.40
65291;SHT30;51893;59.754;10.110;2023-04-03T06:19:46;-2.52;72.40
65291;SHT30;51893;59.754;10.110;2023-04-03T06:22:14;-2.54;72.53
65291;SHT30;51893;59.754;10.110;2023-04-03T06:24:42;-2.65;73.05
65291;SHT30;51893;59.754;10.110;2023-04-03T06:27:10;-2.62;72.94
65291;SHT30;51893;59.754;10.110;2023-04-03T06:29:37;-2.55;72.76
65291;SHT30;51893;59.754;10.110;2023-04-03T06:32:05;-2.49;72.57
65291;SHT30;51893;59.754;10.110;2023-04-03T06:34:33;-2.43;72.37
65291;SHT30;51893;59.754;10.110;2023-04-03T06:37:00;-2.39;72.16
65291;SHT30;51893;59.754;10.110;2023-04-03T06:39:27;-2.35;71.94
65291;SHT30;51893;59.754;10.110;2023-04-03T06:41:57;-2.32;71.82
65291;SHT30;51893;59.754;10.110;2023-04-03T06:44:26;-2.27;71.77
65291;SHT30;51893;59.754;10.110;2023-04-03T06:46:55;-2.24;71.60
65291;SHT30;51893;59.754;10.110;2023-04-03T06:49:24;-2.23;71.57
65291;SHT30;51893;59.754;10.110;2023-04-03T06:51:51;-2.16;71.40
65291;SHT30;51893;59.754;10.110;2023-04-03T06:54:20;-2.06;71.32
65291;SHT30;51893;59.754;10.110;2023-04-03T06:56:52;-2.01;71.02
65291;SHT30;51893;59.754;10.110;2023-04-03T06:59:20;-1.98;70.94
65291;SHT30;51893;59.754;10.110;2023-04-03T07:01:47;-1.86;70.70
65291;SHT30;51893;59.754;10.110;2023-04-03T07:04:16;-1.79;70.35
65291;SHT30;51893;59.754;10.110;2023-04-03T07:06:42;-1.72;70.08
65291;SHT30;51893;59.754;10.110;2023-04-03T07:09:10;-1.69;69.86
65291;SHT30;51893;59.754;10.110;2023-04-03T07:11:38;-1.67;69.74
65291;SHT30;51893;59.754;10.110;2023-04-03T07:14:05;-1.61;69.76
65291;SHT30;51893;59.754;10.110;2023-04-03T07:16:36;-1.53;69.66
65291;SHT30;51893;59.754;10.110;2023-04-03T07:19:10;-1.44;69.52
65291;SHT30;51893;59.754;10.110;2023-04-03T07:21:37;-1.40;69.33
65291;SHT30;51893;59.754;10.110;2023-04-03T07:24:03;-1.34;69.13
65291;SHT30;51893;59.754;10.110;2023-04-03T07:26:32;-1.27;68.88
65291;SHT30;51893;59.754;10.110;2023-04-03T07:28:59;-1.25;68.57
65291;SHT30;51893;59.754;10.110;2023-04-03T07:31:25;-1.21;68.14
65291;SHT30;51893;59.754;10.110;2023-04-03T07:33:52;-1.17;67.78
65291;SHT30;51893;59.754;10.110;2023-04-03T07:36:22;-1.18;67.53
65291;SHT30;51893;59.754;10.110;2023-04-03T07:38:51;-1.20;67.44
65291;SHT30;51893;59.754;10.110;2023-04-03T07:41:20;-1.13;67.46
65291;SHT30;51893;59.754;10.110;2023-04-03T07:43:48;-1.06;67.27
65291;SHT30;51893;59.754;10.110;2023-04-03T07:46:16;-0.97;67.24
65291;SHT30;51893;59.754;10.110;2023-04-03T07:48:44;-0.87;67.19
65291;SHT30;51893;59.754;10.110;2023-04-03T07:51:14;-0.81;67.00
65291;SHT30;51893;59.754;10.110;2023-04-03T07:53:44;-0.83;66.60
65291;SHT30;51893;59.754;10.110;2023-04-03T07:56:16;-0.83;66.53
65291;SHT30;51893;59.754;10.110;2023-04-03T07:58:43;-0.80;66.21
65291;SHT30;51893;59.754;10.110;2023-04-03T08:01:13;-0.81;66.01
65291;SHT30;51893;59.754;10.110;2023-04-03T08:03:40;-0.83;65.81
65291;SHT30;51893;59.754;10.110;2023-04-03T08:06:08;-0.83;65.67
65291;SHT30;51893;59.754;10.110;2023-04-03T08:08:42;-0.75;65.81
65291;SHT30;51893;59.754;10.110;2023-04-03T08:11:11;-0.59;66.03
65291;SHT30;51893;59.754;10.110;2023-04-03T08:13:39;-0.50;65.56
65291;SHT30;51893;59.754;10.110;2023-04-03T08:16:08;-0.44;65.06
65291;SHT30;51893;59.754;10.110;2023-04-03T08:18:42;-0.40;64.80
65291;SHT30;51893;59.754;10.110;2023-04-03T08:21:12;-0.38;64.63
65291;SHT30;51893;59.754;10.110;2023-04-03T08:23:41;-0.26;64.55
65291;SHT30;51893;59.754;10.110;2023-04-03T08:26:10;-0.16;64.59
65291;SHT30;51893;59.754;10.110;2023-04-03T08:28:41;0.00;64.61
65291;SHT30;51893;59.754;10.110;2023-04-03T08:31:10;0.16;64.32
65291;SHT30;51893;59.754;10.110;2023-04-03T08:33:42;0.31;64.18
65291;SHT30;51893;59.754;10.110;2023-04-03T08:36:15;0.49;64.25
65291;SHT30;51893;59.754;10.110;2023-04-03T08:38:52;0.65;64.40
65291;SHT30;51893;59.754;10.110;2023-04-03T08:44:30;0.90;64.17
65291;SHT30;51893;59.754;10.110;2023-04-03T08:49:58;1.19;63.85
65291;SHT30;51893;59.754;10.110;2023-04-03T08:55:22;1.42;64.60
65291;SHT30;51893;59.754;10.110;2023-04-03T08:57:58;1.56;64.85
65291;SHT30;51893;59.754;10.110;2023-04-03T09:00:49;1.70;64.90
65291;SHT30;51893;59.754;10.110;2023-04-03T09:03:24;1.87;65.13
65291;SHT30;51893;59.754;10.110;2023-04-03T09:06:06;2.04;65.06
65291;SHT30;51893;59.754;10.110;2023-04-03T09:17:46;2.38;65.31
65291;SHT30;51893;59.754;10.110;2023-04-03T09:20:53;2.63;66.12
65291;SHT30;51893;59.754;10.110;2023-04-03T09:26:23;3.09;67.76
65291;SHT30;51893;59.754;10.110;2023-04-03T09:29:07;3.34;68.00
65291;SHT30;51893;59.754;10.110;2023-04-03T09:31:47;3.56;67.87
65291;SHT30;51893;59.754;10.110;2023-04-03T09:34:24;3.70;67.94
65291;SHT30;51893;59.754;10.110;2023-04-03T09:36:56;3.87;67.74
65291;SHT30;51893;59.754;10.110;2023-04-03T09:39:48;4.05;67.60
65291;SHT30;51893;59.754;10.110;2023-04-03T09:42:21;4.25;67.01
65291;SHT30;51893;59.754;10.110;2023-04-03T09:44:53;4.39;66.80
65291;SHT30;51893;59.754;10.110;2023-04-03T09:47:33;4.54;66.68
65291;SHT30;51893;59.754;10.110;2023-04-03T09:52:58;4.82;66.23
65291;SHT30;51893;59.754;10.110;2023-04-03T09:55:27;4.91;65.88
65291;SHT30;51893;59.754;10.110;2023-04-03T09:58:03;4.97;65.61
65291;SHT30;51893;59.754;10.110;2023-04-03T10:01:30;5.13;65.31
65291;SHT30;51893;59.754;10.110;2023-04-03T10:04:11;5.23;64.98
65291;SHT30;51893;59.754;10.110;2023-04-03T10:06:46;5.33;64.68
65291;SHT30;51893;59.754;10.110;2023-04-03T10:14:56;5.69;64.03
65291;SHT30;51893;59.754;10.110;2023-04-03T10:20:50;6.00;63.68
65291;SHT30;51893;59.754;10.110;2023-04-03T10:23:24;6.10;63.15
65291;SHT30;51893;59.754;10.110;2023-04-03T10:29:39;6.28;62.81
65291;SHT30;51893;59.754;10.110;2023-04-03T10:44:57;6.83;61.62
65291;SHT30;51893;59.754;10.110;2023-04-03T10:50:51;7.07;61.15
65291;SHT30;51893;59.754;10.110;2023-04-03T10:53:37;7.29;61.02
65291;SHT30;51893;59.754;10.110;2023-04-03T10:59:34;7.47;60.12
65291;SHT30;51893;59.754;10.110;2023-04-03T11:02:16;7.61;60.05
65291;SHT30;51893;59.754;10.110;2023-04-03T11:04:59;7.73;59.80
65291;SHT30;51893;59.754;10.110;2023-04-03T11:07:39;7.79;59.43
65291;SHT30;51893;59.754;10.110;2023-04-03T11:10:21;7.92;59.14
65291;SHT30;51893;59.754;10.110;2023-04-03T11:13:15;8.00;58.54
65291;SHT30;51893;59.754;10.110;2023-04-03T11:16:07;8.04;58.54
65291;SHT30;51893;59.754;10.110;2023-04-03T11:18:37;8.17;58.35
65291;SHT30;51893;59.754;10.110;2023-04-03T11:21:22;8.29;58.13
65291;SHT30;51893;59.754;10.110;2023-04-03T11:24:16;8.38;57.61
65291;SHT30;51893;59.754;10.110;2023-04-03T11:26:51;8.36;57.30
65291;SHT30;51893;59.754;10.110;2023-04-03T11:29:23;8.39;57.20
65291;SHT30;51893;59.754;10.110;2023-04-03T11:34:56;8.66;57.02
65291;SHT30;51893;59.754;10.110;2023-04-03T11:40:13;8.84;56.75
65291;SHT30;51893;59.754;10.110;2023-04-03T11:47:55;9.05;55.95
65291;SHT30;51893;59.754;10.110;2023-04-03T11:50:47;9.10;56.40
65291;SHT30;51893;59.754;10.110;2023-04-03T11:55:45;9.16;55.77
65291;SHT30;51893;59.754;10.110;2023-04-03T11:58:15;9.09;55.69
65291;SHT30;51893;59.754;10.110;2023-04-03T12:01:12;9.07;55.94
65291;SHT30;51893;59.754;10.110;2023-04-03T12:04:23;9.16;56.25
65291;SHT30;51893;59.754;10.110;2023-04-03T12:07:01;9.28;56.18
65291;SHT30;51893;59.754;10.110;2023-04-03T12:15:24;9.25;55.05
65291;SHT30;51893;59.754;10.110;2023-04-03T12:21:12;9.20;54.81
65291;SHT30;51893;59.754;10.110;2023-04-03T12:29:50;9.24;54.69
65291;SHT30;51893;59.754;10.110;2023-04-03T12:32:46;9.28;54.32
65291;SHT30;51893;59.754;10.110;2023-04-03T12:41:48;9.24;54.45
65291;SHT30;51893;59.754;10.110;2023-04-03T12:47:49;9.30;54.80
65291;SHT30;51893;59.754;10.110;2023-04-03T12:50:21;9.42;54.79
65291;SHT30;51893;59.754;10.110;2023-04-03T12:52:52;9.45;54.86
65291;SHT30;51893;59.754;10.110;2023-04-03T12:55:26;9.52;55.08
65291;SHT30;51893;59.754;10.110;2023-04-03T12:57:56;9.56;55.05
65291;SHT30;51893;59.754;10.110;2023-04-03T13:03:00;9.64;55.36
65291;SHT30;51893;59.754;10.110;2023-04-03T13:05:31;9.80;55.08
65291;SHT30;51893;59.754;10.110;2023-04-03T13:08:04;9.89;55.16
65291;SHT30;51893;59.754;10.110;2023-04-03T13:10:43;9.98;54.87
65291;SHT30;51893;59.754;10.110;2023-04-03T13:13:22;10.04;54.60
65291;SHT30;51893;59.754;10.110;2023-04-03T13:15:49;9.97;54.37
65291;SHT30;51893;59.754;10.110;2023-04-03T13:18:36;9.98;54.73
65291;SHT30;51893;59.754;10.110;2023-04-03T13:21:08;10.06;54.82
65291;SHT30;51893;59.754;10.110;2023-04-03T13:23:45;10.08;54.80
65291;SHT30;51893;59.754;10.110;2023-04-03T13:26:24;10.10;54.82
65291;SHT30;51893;59.754;10.110;2023-04-03T13:28:57;10.16;54.88
65291;SHT30;51893;59.754;10.110;2023-04-03T13:31:37;10.22;54.72
65291;SHT30;51893;59.754;10.110;2023-04-03T13:36:38;10.14;54.48
65291;SHT30;51893;59.754;10.110;2023-04-03T13:41:46;9.92;54.79
65291;SHT30;51893;59.754;10.110;2023-04-03T13:46:51;9.83;55.01
65291;SHT30;51893;59.754;10.110;2023-04-03T13:52:32;9.92;55.05
65291;SHT30;51893;59.754;10.110;2023-04-03T13:55:24;9.90;54.87
65291;SHT30;51893;59.754;10.110;2023-04-03T13:58:21;9.82;54.78
65291;SHT30;51893;59.754;10.110;2023-04-03T14:00:52;9.82;54.88
65291;SHT30;51893;59.754;10.110;2023-04-03T14:03:24;9.88;54.70
65291;SHT30;51893;59.754;10.110;2023-04-03T14:05:57;9.72;54.75
65291;SHT30;51893;59.754;10.110;2023-04-03T14:08:24;9.71;55.01
65291;SHT30;51893;59.754;10.110;2023-04-03T14:11:18;9.76;55.03
65291;SHT30;51893;59.754;10.110;2023-04-03T14:13:50;9.78;55.02
65291;SHT30;51893;59.754;10.110;2023-04-03T14:16:40;9.73;55.17
65291;SHT30;51893;59.754;10.110;2023-04-03T14:19:27;9.71;55.04
65291;SHT30;51893;59.754;10.110;2023-04-03T14:21:58;9.60;55.21
65291;SHT30;51893;59.754;10.110;2023-04-03T14:24:29;9.51;55.46
65291;SHT30;51893;59.754;10.110;2023-04-03T14:26:57;9.49;55.62
65291;SHT30;51893;59.754;10.110;2023-04-03T14:29:24;9.41;55.74
65291;SHT30;51893;59.754;10.110;2023-04-03T14:31:51;9.38;55.91
65291;SHT30;51893;59.754;10.110;2023-04-03T14:34:37;9.36;56.07
65291;SHT30;51893;59.754;10.110;2023-04-03T14:37:05;9.37;56.18
65291;SHT30;51893;59.754;10.110;2023-04-03T14:39:39;9.42;56.12
65291;SHT30;51893;59.754;10.110;2023-04-03T14:42:15;9.42;56.10
65291;SHT30;51893;59.754;10.110;2023-04-03T14:44:49;9.36;55.97
65291;SHT30;51893;59.754;10.110;2023-04-03T14:47:19;9.32;56.54
65291;SHT30;51893;59.754;10.110;2023-04-03T14:50:03;9.39;56.60
65291;SHT30;51893;59.754;10.110;2023-04-03T14:52:35;9.40;56.40
65291;SHT30;51893;59.754;10.110;2023-04-03T14:55:11;9.42;56.37
65291;SHT30;51893;59.754;10.110;2023-04-03T14:57:41;9.46;56.45
65291;SHT30;51893;59.754;10.110;2023-04-03T15:00:12;9.46;56.34
65291;SHT30;51893;59.754;10.110;2023-04-03T15:02:47;9.48;56.42
65291;SHT30;51893;59.754;10.110;2023-04-03T15:05:15;9.47;56.27
65291;SHT30;51893;59.754;10.110;2023-04-03T15:07:53;9.46;56.42
65291;SHT30;51893;59.754;10.110;2023-04-03T15:10:24;9.44;56.40
65291;SHT30;51893;59.754;10.110;2023-04-03T15:12:57;9.45;56.39
65291;SHT30;51893;59.754;10.110;2023-04-03T15:15:30;9.55;56.50
65291;SHT30;51893;59.754;10.110;2023-04-03T15:17:59;9.65;56.23
65291;SHT30;51893;59.754;10.110;2023-04-03T15:20:33;9.71;56.13
65291;SHT30;51893;59.754;10.110;2023-04-03T15:23:02;9.75;56.03
65291;SHT30;51893;59.754;10.110;2023-04-03T15:25:28;9.84;55.85
65291;SHT30;51893;59.754;10.110;2023-04-03T15:27:56;9.83;55.63
65291;SHT30;51893;59.754;10.110;2023-04-03T15:30:26;9.87;55.69
65291;SHT30;51893;59.754;10.110;2023-04-03T15:32:57;9.95;55.69
65291;SHT30;51893;59.754;10.110;2023-04-03T15:35:24;10.03;55.77
65291;SHT30;51893;59.754;10.110;2023-04-03T15:37:55;10.05;55.71
65291;SHT30;51893;59.754;10.110;2023-04-03T15:40:22;10.03;55.91
65291;SHT30;51893;59.754;10.110;2023-04-03T15:42:49;10.12;55.88
65291;SHT30;51893;59.754;10.110;2023-04-03T15:45:19;10.19;55.87
65291;SHT30;51893;59.754;10.110;2023-04-03T15:47:48;10.21;55.99
65291;SHT30;51893;59.754;10.110;2023-04-03T15:50:18;10.26;55.99
65291;SHT30;51893;59.754;10.110;2023-04-03T15:52:48;10.24;56.12
65291;SHT30;51893;59.754;10.110;2023-04-03T15:55:21;10.28;56.06
65291;SHT30;51893;59.754;10.110;2023-04-03T15:57:49;10.28;56.22
65291;SHT30;51893;59.754;10.110;2023-04-03T16:00:15;10.33;56.21
65291;SHT30;51893;59.754;10.110;2023-04-03T16:02:44;10.39;56.26
65291;SHT30;51893;59.754;10.110;2023-04-03T16:05:13;10.39;56.25
65291;SHT30;51893;59.754;10.110;2023-04-03T16:07:44;10.35;56.30
65291;SHT30;51893;59.754;10.110;2023-04-03T16:10:13;10.28;56.42
65291;SHT30;51893;59.754;10.110;2023-04-03T16:12:42;10.15;56.69
65291;SHT30;51893;59.754;10.110;2023-04-03T16:15:10;10.07;56.94
65291;SHT30;51893;59.754;10.110;2023-04-03T16:17:37;10.00;57.03
65291;SHT30;51893;59.754;10.110;2023-04-03T16:20:07;9.84;57.33
65291;SHT30;51893;59.754;10.110;2023-04-03T16:22:39;9.76;57.54
65291;SHT30;51893;59.754;10.110;2023-04-03T16:25:09;9.64;57.72
65291;SHT30;51893;59.754;10.110;2023-04-03T16:27:36;9.56;57.93
65291;SHT30;51893;59.754;10.110;2023-04-03T16:30:05;9.48;58.19
65291;SHT30;51893;59.754;10.110;2023-04-03T16:32:34;9.45;58.37
65291;SHT30;51893;59.754;10.110;2023-04-03T16:35:04;9.49;58.47
65291;SHT30;51893;59.754;10.110;2023-04-03T16:37:32;9.51;58.43
65291;SHT30;51893;59.754;10.110;2023-04-03T16:39:59;9.57;58.54
65291;SHT30;51893;59.754;10.110;2023-04-03T16:42:26;9.65;58.42
65291;SHT30;51893;59.754;10.110;2023-04-03T16:44:54;9.68;58.46
65291;SHT30;51893;59.754;10.110;2023-04-03T16:47:23;9.74;58.33
65291;SHT30;51893;59.754;10.110;2023-04-03T16:49:51;9.72;58.35
65291;SHT30;51893;59.754;10.110;2023-04-03T16:52:18;9.80;59.13
65291;SHT30;51893;59.754;10.110;2023-04-03T16:54:45;9.64;58.68
65291;SHT30;51893;59.754;10.110;2023-04-03T16:57:17;9.52;58.97
65291;SHT30;51893;59.754;10.110;2023-04-03T16:59:49;9.43;59.16
65291;SHT30;51893;59.754;10.110;2023-04-03T17:02:18;9.37;59.32
65291;SHT30;51893;59.754;10.110;2023-04-03T17:04:48;9.29;59.44
65291;SHT30;51893;59.754;10.110;2023-04-03T17:07:22;9.14;59.73
65291;SHT30;51893;59.754;10.110;2023-04-03T17:09:50;8.94;60.23
65291;SHT30;51893;59.754;10.110;2023-04-03T17:12:20;8.79;60.55
65291;SHT30;51893;59.754;10.110;2023-04-03T17:14:51;8.61;60.88
65291;SHT30;51893;59.754;10.110;2023-04-03T17:17:21;8.48;61.14
65291;SHT30;51893;59.754;10.110;2023-04-03T17:19:53;8.33;61.44
65291;SHT30;51893;59.754;10.110;2023-04-03T17:22:21;8.23;61.67
65291;SHT30;51893;59.754;10.110;2023-04-03T17:24:48;8.14;61.87
65291;SHT30;51893;59.754;10.110;2023-04-03T17:27:16;8.05;62.03
65291;SHT30;51893;59.754;10.110;2023-04-03T17:29:43;7.97;62.11
65291;SHT30;51893;59.754;10.110;2023-04-03T17:32:10;7.89;62.31
65291;SHT30;51893;59.754;10.110;2023-04-03T17:34:38;7.84;62.53
65291;SHT30;51893;59.754;10.110;2023-04-03T17:37:09;7.64;63.11
65291;SHT30;51893;59.754;10.110;2023-04-03T17:39:35;7.49;63.73
65291;SHT30;51893;59.754;10.110;2023-04-03T17:42:06;7.37;64.10
65291;SHT30;51893;59.754;10.110;2023-04-03T17:44:33;7.24;64.36
65291;SHT30;51893;59.754;10.110;2023-04-03T17:47:01;7.10;64.73
65291;SHT30;51893;59.754;10.110;2023-04-03T17:49:32;7.00;65.23